Share

Belen, NM

10:29 AM MDT on April 23, 2014 (GMT -0600)
Belen (KE80) Elev 5194 ft | 34.65 °N, 106.83 °W | Change Station

Current weather conditions updated 14 minutes ago

Clear
Clear
69 °F
Feels Like 69 °F
N
10
Wind Variable Wind from West
Gusts 18 mph
Sunrise 6:25 AM
Sunset 7:45 PM
Moon Waning Crescent

Today is forecast to be nearly the same temperature as yesterday.

Pressure 29.89 in
Visibility 10.0 miles
Clouds Clear
Dew Point 22 °F
Humidity 17%
Rainfall 0.00 in
Snow Depth Not available.
UV 7 out of 16
Pollen 8.90 out of 12
Air Quality Not available.
Flu Activity Local Activity
METAR KE80 231615Z AUTO 27009G16KT 10SM CLR 21/M05 A2989 RMK AO2 T02061055

More Conditions Fewer Conditions

Pressure 29.89 in
Visibility 10.0 miles
Clouds Clear
Dew Point 22 °F
Humidity 17%
Rainfall 0.00 in
Snow Depth Not available.
UV 7 out of 16
Pollen 8.90 out of 12
Air Quality Not available.
Flu Activity Local Activity
METAR KE80 231615Z AUTO 27009G16KT 10SM CLR 21/M05 A2989 RMK AO2 T02061055

More Conditions Fewer Conditions

10-Day Weather Forecast

Almanac

Astronomy

Apr. 23, 2014 Rise Set
Actual Time 6:25 AM MDT 7:45 PM MDT
Civil Twilight 5:59 AM MDT 8:12 PM MDT
Nautical Twilight 5:27 AM MDT 8:43 PM MDT
Astronomical Twilight 4:55 AM MDT 9:16 PM MDT
Moon 2:44 AM MDT 2:11 PM MDT
Length of Visible Light 14h 12m
Length of Day
13h 19m
Tomorrow will be 1m 58s longer.
Waning Crescent, 35% of the Moon is Illuminated
Today
Waning Crescent
Apr 29
New
May 6
First Quarter
May 14
Full
May 21
Last Quarter

Today's Extremes

State Highs State Lows

Community

  • Stunning Sunrise
    Stunning Sunrise
  • spring flowers
    spring flowers
  • Earth Day Spectrum Ove' Blue
    Earth Day Spectrum Ove' Blue
  • BARN B&W
    BARN B&W
  • April Sunset
    April Sunset

WunderPhotos

Upload Photos

1,704,322 photos uploaded!

WunderBlogs® & News

Nearby

Snow Depth

Station Depth Elevation
Rice Park 0 in 8460 ft
Quemazon 0 in 9500 ft
Senorita Divide #2 0 in 8600 ft
Santa Fe 29 in 11445 ft
Wesner Springs 0 in 11120 ft

Coastal Water Temperatures

Place Temperature
No Stations Reporting

Earthquake Activity

City Distance Mag. Time & Date
No recent earthquake activity has been reported nearby.
Minimum magnitude displayed is 2.5.

Nearby Weather Stations

Station Location Temp. Heat Index Dew Point Humidity Wind Precip. Elev Updated Type
Belen, Belen, NM 74.7 °F 75 °F 22 °F 14% WSW  at  7.8 mph - / hr 4806 ft 10:20 AM MDT Normal
MesoWest LOS LUNAS PMC , Tome, NM 69 °F - 24 °F 18% WNW  at  3 mph 0.00 in / hr 4846 ft 9:00 AM MDT MADIS
Valencia Y, Los Lunas, NM 73.2 °F 74 °F 27 °F 12% South  at  2.0 mph 0.00 in / hr 4852 ft 10:29 AM MDT Rapid Fire
RAWS SEVILLETA NM, La Joya, NM 70 °F - 25 °F 18% WSW  at  11 mph 0.00 in / hr 4789 ft 9:11 AM MDT MADIS

Show More Stations Show Fewer Stations

What do you think?

We're not finished. Please let us know what you like, what you don't like, and what you are still missing.